Terminal Aerodrome Forecast
Issued by NWS

Home | Current Version | Previous Version | Text Only | Print | Product List | Glossary On
Versions: 1 2 3 4 5 6 7 8 9 10 11 12 13 14 15 16 17 18 19 20 21 22 23 24 25 26 27 28 29 30 31 32 33 34 35 36 37 38
000
FTUS45 KBOI 071728
TAFTWF
TAF
KTWF 071728Z 0718/0818 20006KT P6SM FEW015
     FM072000 04007KT P6SM FEW030
     FM080200 11007KT P6SM SCT250
     FM081400 07014G24KT P6SM BKN050 OVC100=

USA.gov is the U.S. government's official web portal to all federal, state and local government web resources and services.